sensor_id;sensor_type;location;lat;lon;timestamp;temperature;humidity
16032;DHT22;8120;48.308;8.914;2022-09-17T00:02:12;7.70;92.60
16032;DHT22;8120;48.308;8.914;2022-09-17T00:04:41;7.80;92.30
16032;DHT22;8120;48.308;8.914;2022-09-17T00:07:09;7.80;92.80
16032;DHT22;8120;48.308;8.914;2022-09-17T00:09:36;7.90;91.90
16032;DHT22;8120;48.308;8.914;2022-09-17T00:12:05;7.90;92.00
16032;DHT22;8120;48.308;8.914;2022-09-17T00:14:32;7.90;91.50
16032;DHT22;8120;48.308;8.914;2022-09-17T00:17:00;7.90;91.40
16032;DHT22;8120;48.308;8.914;2022-09-17T00:19:28;7.90;91.00
16032;DHT22;8120;48.308;8.914;2022-09-17T00:21:57;7.90;91.10
16032;DHT22;8120;48.308;8.914;2022-09-17T00:24:25;7.90;91.40
16032;DHT22;8120;48.308;8.914;2022-09-17T00:26:53;7.90;91.80
16032;DHT22;8120;48.308;8.914;2022-09-17T00:29:20;7.90;92.80
16032;DHT22;8120;48.308;8.914;2022-09-17T00:31:48;7.90;93.70
16032;DHT22;8120;48.308;8.914;2022-09-17T00:34:16;7.90;94.30
16032;DHT22;8120;48.308;8.914;2022-09-17T00:36:44;7.90;94.50
16032;DHT22;8120;48.308;8.914;2022-09-17T00:39:13;7.80;94.60
16032;DHT22;8120;48.308;8.914;2022-09-17T00:41:42;7.80;95.80
16032;DHT22;8120;48.308;8.914;2022-09-17T00:44:43;7.80;95.60
16032;DHT22;8120;48.308;8.914;2022-09-17T00:47:24;7.70;94.90
16032;DHT22;8120;48.308;8.914;2022-09-17T00:49:56;7.80;94.70
16032;DHT22;8120;48.308;8.914;2022-09-17T00:52:28;7.80;94.20
16032;DHT22;8120;48.308;8.914;2022-09-17T00:55:02;7.70;94.10
16032;DHT22;8120;48.308;8.914;2022-09-17T00:57:32;7.80;93.70
16032;DHT22;8120;48.308;8.914;2022-09-17T01:00:00;7.80;93.20
16032;DHT22;8120;48.308;8.914;2022-09-17T01:02:28;7.80;92.60
16032;DHT22;8120;48.308;8.914;2022-09-17T01:04:56;7.80;92.30
16032;DHT22;8120;48.308;8.914;2022-09-17T01:07:34;7.80;92.80
16032;DHT22;8120;48.308;8.914;2022-09-17T01:10:17;7.80;92.60
16032;DHT22;8120;48.308;8.914;2022-09-17T01:12:58;7.80;92.20
16032;DHT22;8120;48.308;8.914;2022-09-17T01:15:34;7.80;92.10
16032;DHT22;8120;48.308;8.914;2022-09-17T01:18:16;7.80;92.00
16032;DHT22;8120;48.308;8.914;2022-09-17T01:24:13;7.70;91.80
16032;DHT22;8120;48.308;8.914;2022-09-17T01:29:58;7.70;91.80
16032;DHT22;8120;48.308;8.914;2022-09-17T01:32:33;7.70;92.30
16032;DHT22;8120;48.308;8.914;2022-09-17T01:35:07;7.70;92.30
16032;DHT22;8120;48.308;8.914;2022-09-17T01:37:43;7.70;92.80
16032;DHT22;8120;48.308;8.914;2022-09-17T01:40:17;7.70;93.00
16032;DHT22;8120;48.308;8.914;2022-09-17T01:42:56;7.80;93.40
16032;DHT22;8120;48.308;8.914;2022-09-17T01:45:28;7.70;93.40
16032;DHT22;8120;48.308;8.914;2022-09-17T01:48:02;7.70;93.60
16032;DHT22;8120;48.308;8.914;2022-09-17T01:50:39;7.70;94.00
16032;DHT22;8120;48.308;8.914;2022-09-17T01:53:09;7.60;93.70
16032;DHT22;8120;48.308;8.914;2022-09-17T01:55:39;7.70;93.50
16032;DHT22;8120;48.308;8.914;2022-09-17T01:58:13;7.70;93.20
16032;DHT22;8120;48.308;8.914;2022-09-17T02:00:47;7.70;92.50
16032;DHT22;8120;48.308;8.914;2022-09-17T02:03:21;7.70;92.30
16032;DHT22;8120;48.308;8.914;2022-09-17T02:05:54;7.60;92.00
16032;DHT22;8120;48.308;8.914;2022-09-17T02:08:26;7.60;92.00
16032;DHT22;8120;48.308;8.914;2022-09-17T02:10:58;7.50;92.50
16032;DHT22;8120;48.308;8.914;2022-09-17T02:13:33;7.40;92.80
16032;DHT22;8120;48.308;8.914;2022-09-17T02:16:04;7.40;92.90
16032;DHT22;8120;48.308;8.914;2022-09-17T02:18:38;7.40;93.00
16032;DHT22;8120;48.308;8.914;2022-09-17T02:21:10;7.30;92.80
16032;DHT22;8120;48.308;8.914;2022-09-17T02:23:47;7.20;92.90
16032;DHT22;8120;48.308;8.914;2022-09-17T02:26:19;7.20;93.00
16032;DHT22;8120;48.308;8.914;2022-09-17T02:28:49;7.10;92.90
16032;DHT22;8120;48.308;8.914;2022-09-17T02:31:18;7.10;93.40
16032;DHT22;8120;48.308;8.914;2022-09-17T02:33:48;7.10;93.50
16032;DHT22;8120;48.308;8.914;2022-09-17T02:36:18;7.10;93.10
16032;DHT22;8120;48.308;8.914;2022-09-17T02:38:46;7.10;92.90
16032;DHT22;8120;48.308;8.914;2022-09-17T02:41:15;7.10;93.50
16032;DHT22;8120;48.308;8.914;2022-09-17T02:43:52;7.20;93.10
16032;DHT22;8120;48.308;8.914;2022-09-17T02:46:40;7.20;92.80
16032;DHT22;8120;48.308;8.914;2022-09-17T02:49:26;7.30;91.90
16032;DHT22;8120;48.308;8.914;2022-09-17T02:52:05;7.40;91.40
16032;DHT22;8120;48.308;8.914;2022-09-17T02:54:39;7.40;91.60
16032;DHT22;8120;48.308;8.914;2022-09-17T02:57:14;7.40;91.80
16032;DHT22;8120;48.308;8.914;2022-09-17T02:59:52;7.40;91.20
16032;DHT22;8120;48.308;8.914;2022-09-17T03:02:25;7.40;90.90
16032;DHT22;8120;48.308;8.914;2022-09-17T03:04:56;7.40;90.80
16032;DHT22;8120;48.308;8.914;2022-09-17T03:07:24;7.40;90.00
16032;DHT22;8120;48.308;8.914;2022-09-17T03:09:54;7.40;90.50
16032;DHT22;8120;48.308;8.914;2022-09-17T03:12:22;7.40;90.70
16032;DHT22;8120;48.308;8.914;2022-09-17T03:14:52;7.40;90.30
16032;DHT22;8120;48.308;8.914;2022-09-17T03:17:20;7.40;90.70
16032;DHT22;8120;48.308;8.914;2022-09-17T03:19:48;7.40;90.50
16032;DHT22;8120;48.308;8.914;2022-09-17T03:22:17;7.40;90.30
16032;DHT22;8120;48.308;8.914;2022-09-17T03:24:45;7.40;89.80
16032;DHT22;8120;48.308;8.914;2022-09-17T03:27:12;7.40;90.80
16032;DHT22;8120;48.308;8.914;2022-09-17T03:29:40;7.40;91.90
16032;DHT22;8120;48.308;8.914;2022-09-17T03:32:09;7.30;92.70
16032;DHT22;8120;48.308;8.914;2022-09-17T03:34:37;7.30;93.10
16032;DHT22;8120;48.308;8.914;2022-09-17T03:37:05;7.30;94.30
16032;DHT22;8120;48.308;8.914;2022-09-17T03:39:34;7.30;94.90
16032;DHT22;8120;48.308;8.914;2022-09-17T03:42:03;7.30;95.20
16032;DHT22;8120;48.308;8.914;2022-09-17T03:44:30;7.30;95.60
16032;DHT22;8120;48.308;8.914;2022-09-17T03:46:58;7.30;96.70
16032;DHT22;8120;48.308;8.914;2022-09-17T03:49:26;7.30;97.10
16032;DHT22;8120;48.308;8.914;2022-09-17T03:51:54;7.20;98.10
16032;DHT22;8120;48.308;8.914;2022-09-17T03:54:22;7.20;98.70
16032;DHT22;8120;48.308;8.914;2022-09-17T03:56:51;7.20;98.50
16032;DHT22;8120;48.308;8.914;2022-09-17T03:59:19;7.20;99.00
16032;DHT22;8120;48.308;8.914;2022-09-17T04:01:46;7.20;97.10
16032;DHT22;8120;48.308;8.914;2022-09-17T04:04:14;7.10;96.60
16032;DHT22;8120;48.308;8.914;2022-09-17T04:06:42;7.10;97.10
16032;DHT22;8120;48.308;8.914;2022-09-17T04:09:10;7.10;97.20
16032;DHT22;8120;48.308;8.914;2022-09-17T04:11:38;7.00;97.90
16032;DHT22;8120;48.308;8.914;2022-09-17T04:14:07;6.90;97.20
16032;DHT22;8120;48.308;8.914;2022-09-17T04:16:35;6.90;98.40
16032;DHT22;8120;48.308;8.914;2022-09-17T04:19:02;6.80;98.80
16032;DHT22;8120;48.308;8.914;2022-09-17T04:21:30;6.70;98.90
16032;DHT22;8120;48.308;8.914;2022-09-17T04:23:58;6.70;99.20
16032;DHT22;8120;48.308;8.914;2022-09-17T04:26:26;6.70;99.70
16032;DHT22;8120;48.308;8.914;2022-09-17T04:28:54;6.60;99.90
16032;DHT22;8120;48.308;8.914;2022-09-17T04:31:24;6.60;99.90
16032;DHT22;8120;48.308;8.914;2022-09-17T04:33:52;6.70;99.90
16032;DHT22;8120;48.308;8.914;2022-09-17T04:36:20;6.70;99.90
16032;DHT22;8120;48.308;8.914;2022-09-17T04:38:48;6.80;99.90
16032;DHT22;8120;48.308;8.914;2022-09-17T04:41:16;6.80;99.90
16032;DHT22;8120;48.308;8.914;2022-09-17T04:43:44;6.80;99.90
16032;DHT22;8120;48.308;8.914;2022-09-17T04:46:12;6.80;99.90
16032;DHT22;8120;48.308;8.914;2022-09-17T04:48:43;6.90;99.90
16032;DHT22;8120;48.308;8.914;2022-09-17T04:51:11;6.90;99.90
16032;DHT22;8120;48.308;8.914;2022-09-17T04:53:39;6.90;99.90
16032;DHT22;8120;48.308;8.914;2022-09-17T04:56:06;6.90;99.90
16032;DHT22;8120;48.308;8.914;2022-09-17T04:58:34;6.90;99.90
16032;DHT22;8120;48.308;8.914;2022-09-17T05:01:02;7.00;99.90
16032;DHT22;8120;48.308;8.914;2022-09-17T05:03:30;7.00;99.90
16032;DHT22;8120;48.308;8.914;2022-09-17T05:05:59;7.00;99.90
16032;DHT22;8120;48.308;8.914;2022-09-17T05:08:27;7.00;99.90
16032;DHT22;8120;48.308;8.914;2022-09-17T05:10:55;7.00;99.90
16032;DHT22;8120;48.308;8.914;2022-09-17T05:13:23;6.90;99.50
16032;DHT22;8120;48.308;8.914;2022-09-17T05:15:52;6.90;99.90
16032;DHT22;8120;48.308;8.914;2022-09-17T05:18:20;7.00;99.90
16032;DHT22;8120;48.308;8.914;2022-09-17T05:20:48;6.90;99.60
16032;DHT22;8120;48.308;8.914;2022-09-17T05:23:17;6.90;99.70
16032;DHT22;8120;48.308;8.914;2022-09-17T05:25:45;6.90;99.90
16032;DHT22;8120;48.308;8.914;2022-09-17T05:28:13;6.90;99.40
16032;DHT22;8120;48.308;8.914;2022-09-17T05:30:41;6.90;99.90
16032;DHT22;8120;48.308;8.914;2022-09-17T05:33:09;6.90;99.30
16032;DHT22;8120;48.308;8.914;2022-09-17T05:35:37;6.90;99.70
16032;DHT22;8120;48.308;8.914;2022-09-17T05:38:05;6.80;98.80
16032;DHT22;8120;48.308;8.914;2022-09-17T05:40:35;6.70;99.80
16032;DHT22;8120;48.308;8.914;2022-09-17T05:43:05;6.60;99.90
16032;DHT22;8120;48.308;8.914;2022-09-17T05:45:33;6.60;99.90
16032;DHT22;8120;48.308;8.914;2022-09-17T05:48:03;6.70;99.60
16032;DHT22;8120;48.308;8.914;2022-09-17T05:50:32;6.80;98.80
16032;DHT22;8120;48.308;8.914;2022-09-17T05:53:03;6.90;98.10
16032;DHT22;8120;48.308;8.914;2022-09-17T05:55:32;6.90;98.00
16032;DHT22;8120;48.308;8.914;2022-09-17T05:58:07;7.00;97.70
16032;DHT22;8120;48.308;8.914;2022-09-17T06:00:35;7.00;96.50
16032;DHT22;8120;48.308;8.914;2022-09-17T06:03:03;7.10;96.70
16032;DHT22;8120;48.308;8.914;2022-09-17T06:05:31;7.10;97.20
16032;DHT22;8120;48.308;8.914;2022-09-17T06:07:59;7.20;96.30
16032;DHT22;8120;48.308;8.914;2022-09-17T06:10:27;7.20;95.10
16032;DHT22;8120;48.308;8.914;2022-09-17T06:12:55;7.20;94.40
16032;DHT22;8120;48.308;8.914;2022-09-17T06:15:25;7.20;94.40
16032;DHT22;8120;48.308;8.914;2022-09-17T06:17:53;7.20;93.80
16032;DHT22;8120;48.308;8.914;2022-09-17T06:20:21;7.30;94.60
16032;DHT22;8120;48.308;8.914;2022-09-17T06:22:54;7.30;93.20
16032;DHT22;8120;48.308;8.914;2022-09-17T06:25:23;7.20;91.90
16032;DHT22;8120;48.308;8.914;2022-09-17T06:27:51;7.30;93.00
16032;DHT22;8120;48.308;8.914;2022-09-17T06:30:19;7.40;93.90
16032;DHT22;8120;48.308;8.914;2022-09-17T06:32:48;7.50;92.70
16032;DHT22;8120;48.308;8.914;2022-09-17T06:35:17;7.60;90.90
16032;DHT22;8120;48.308;8.914;2022-09-17T06:37:46;7.60;91.00
16032;DHT22;8120;48.308;8.914;2022-09-17T06:40:14;7.60;90.90
16032;DHT22;8120;48.308;8.914;2022-09-17T06:42:43;7.70;90.90
16032;DHT22;8120;48.308;8.914;2022-09-17T06:45:11;7.60;90.00
16032;DHT22;8120;48.308;8.914;2022-09-17T06:47:42;7.70;89.30
16032;DHT22;8120;48.308;8.914;2022-09-17T06:50:11;8.50;85.90
16032;DHT22;8120;48.308;8.914;2022-09-17T06:52:46;9.20;79.90
16032;DHT22;8120;48.308;8.914;2022-09-17T06:55:14;9.10;81.00
16032;DHT22;8120;48.308;8.914;2022-09-17T06:57:42;9.20;82.40
16032;DHT22;8120;48.308;8.914;2022-09-17T07:00:11;8.70;82.20
16032;DHT22;8120;48.308;8.914;2022-09-17T07:02:40;8.50;83.30
16032;DHT22;8120;48.308;8.914;2022-09-17T07:05:08;8.40;82.70
16032;DHT22;8120;48.308;8.914;2022-09-17T07:07:37;8.50;82.80
16032;DHT22;8120;48.308;8.914;2022-09-17T07:10:06;8.70;80.90
16032;DHT22;8120;48.308;8.914;2022-09-17T07:12:39;8.80;81.00
16032;DHT22;8120;48.308;8.914;2022-09-17T07:15:08;9.10;80.50
16032;DHT22;8120;48.308;8.914;2022-09-17T07:17:36;9.20;78.40
16032;DHT22;8120;48.308;8.914;2022-09-17T07:20:07;9.20;78.60
16032;DHT22;8120;48.308;8.914;2022-09-17T07:22:36;9.00;78.70
16032;DHT22;8120;48.308;8.914;2022-09-17T07:25:05;8.80;79.30
16032;DHT22;8120;48.308;8.914;2022-09-17T07:27:33;8.70;79.10
16032;DHT22;8120;48.308;8.914;2022-09-17T07:30:00;8.70;79.30
16032;DHT22;8120;48.308;8.914;2022-09-17T07:32:29;8.70;79.40
16032;DHT22;8120;48.308;8.914;2022-09-17T07:34:57;8.80;78.60
16032;DHT22;8120;48.308;8.914;2022-09-17T07:37:25;8.70;79.40
16032;DHT22;8120;48.308;8.914;2022-09-17T07:39:54;8.60;79.10
16032;DHT22;8120;48.308;8.914;2022-09-17T07:42:22;8.70;79.80
16032;DHT22;8120;48.308;8.914;2022-09-17T07:44:50;8.80;77.50
16032;DHT22;8120;48.308;8.914;2022-09-17T07:47:18;8.90;77.00
16032;DHT22;8120;48.308;8.914;2022-09-17T07:49:46;8.90;79.80
16032;DHT22;8120;48.308;8.914;2022-09-17T07:52:13;8.90;78.20
16032;DHT22;8120;48.308;8.914;2022-09-17T07:54:41;8.80;77.90
16032;DHT22;8120;48.308;8.914;2022-09-17T07:57:10;8.90;78.10
16032;DHT22;8120;48.308;8.914;2022-09-17T07:59:38;8.90;79.20
16032;DHT22;8120;48.308;8.914;2022-09-17T08:02:10;8.90;78.20
16032;DHT22;8120;48.308;8.914;2022-09-17T08:04:40;8.90;77.20
16032;DHT22;8120;48.308;8.914;2022-09-17T08:07:10;8.70;78.30
16032;DHT22;8120;48.308;8.914;2022-09-17T08:09:38;8.70;79.60
16032;DHT22;8120;48.308;8.914;2022-09-17T08:12:06;8.60;80.10
16032;DHT22;8120;48.308;8.914;2022-09-17T08:14:36;8.40;81.30
16032;DHT22;8120;48.308;8.914;2022-09-17T08:17:06;8.50;82.10
16032;DHT22;8120;48.308;8.914;2022-09-17T08:19:34;8.40;81.80
16032;DHT22;8120;48.308;8.914;2022-09-17T08:22:02;8.50;82.70
16032;DHT22;8120;48.308;8.914;2022-09-17T08:24:30;8.40;82.50
16032;DHT22;8120;48.308;8.914;2022-09-17T08:26:58;8.40;83.50
16032;DHT22;8120;48.308;8.914;2022-09-17T08:29:25;8.40;83.60
16032;DHT22;8120;48.308;8.914;2022-09-17T08:32:00;8.50;83.80
16032;DHT22;8120;48.308;8.914;2022-09-17T08:34:28;8.50;84.60
16032;DHT22;8120;48.308;8.914;2022-09-17T08:36:55;8.70;83.80
16032;DHT22;8120;48.308;8.914;2022-09-17T08:39:23;8.70;83.00
16032;DHT22;8120;48.308;8.914;2022-09-17T08:41:55;8.80;82.60
16032;DHT22;8120;48.308;8.914;2022-09-17T08:44:29;8.70;82.70
16032;DHT22;8120;48.308;8.914;2022-09-17T08:47:01;8.50;85.00
16032;DHT22;8120;48.308;8.914;2022-09-17T08:49:34;8.30;87.00
16032;DHT22;8120;48.308;8.914;2022-09-17T08:52:17;8.30;89.10
16032;DHT22;8120;48.308;8.914;2022-09-17T08:54:54;8.20;88.50
16032;DHT22;8120;48.308;8.914;2022-09-17T08:57:30;8.20;88.90
16032;DHT22;8120;48.308;8.914;2022-09-17T09:00:03;8.20;88.50
16032;DHT22;8120;48.308;8.914;2022-09-17T09:02:45;8.00;91.00
16032;DHT22;8120;48.308;8.914;2022-09-17T09:05:16;8.20;89.90
16032;DHT22;8120;48.308;8.914;2022-09-17T09:07:47;8.30;90.40
16032;DHT22;8120;48.308;8.914;2022-09-17T09:10:20;8.40;89.40
16032;DHT22;8120;48.308;8.914;2022-09-17T09:12:51;8.60;89.90
16032;DHT22;8120;48.308;8.914;2022-09-17T09:15:31;8.70;86.60
16032;DHT22;8120;48.308;8.914;2022-09-17T09:18:08;9.10;86.10
16032;DHT22;8120;48.308;8.914;2022-09-17T09:20:47;9.10;85.00
16032;DHT22;8120;48.308;8.914;2022-09-17T09:23:19;8.80;83.00
16032;DHT22;8120;48.308;8.914;2022-09-17T09:25:53;9.00;82.90
16032;DHT22;8120;48.308;8.914;2022-09-17T09:28:55;9.00;80.70
16032;DHT22;8120;48.308;8.914;2022-09-17T09:31:40;9.20;83.20
16032;DHT22;8120;48.308;8.914;2022-09-17T09:34:13;9.50;80.00
16032;DHT22;8120;48.308;8.914;2022-09-17T09:36:41;9.50;80.80
16032;DHT22;8120;48.308;8.914;2022-09-17T09:39:14;9.80;80.20
16032;DHT22;8120;48.308;8.914;2022-09-17T09:41:47;10.00;76.90
16032;DHT22;8120;48.308;8.914;2022-09-17T09:44:16;9.80;76.60
16032;DHT22;8120;48.308;8.914;2022-09-17T09:46:57;10.10;78.50
16032;DHT22;8120;48.308;8.914;2022-09-17T09:52:33;10.70;72.50
16032;DHT22;8120;48.308;8.914;2022-09-17T09:55:24;10.30;72.70
16032;DHT22;8120;48.308;8.914;2022-09-17T09:58:03;10.20;73.80
16032;DHT22;8120;48.308;8.914;2022-09-17T10:00:37;10.20;75.60
16032;DHT22;8120;48.308;8.914;2022-09-17T10:03:10;10.40;74.50
16032;DHT22;8120;48.308;8.914;2022-09-17T10:05:52;10.00;75.40
16032;DHT22;8120;48.308;8.914;2022-09-17T10:08:20;9.80;75.40
16032;DHT22;8120;48.308;8.914;2022-09-17T10:10:57;10.00;76.10
16032;DHT22;8120;48.308;8.914;2022-09-17T10:13:26;10.20;77.20
16032;DHT22;8120;48.308;8.914;2022-09-17T10:15:54;10.30;75.00
16032;DHT22;8120;48.308;8.914;2022-09-17T10:18:23;10.30;74.30
16032;DHT22;8120;48.308;8.914;2022-09-17T10:20:55;10.40;74.40
16032;DHT22;8120;48.308;8.914;2022-09-17T10:23:25;10.30;72.40
16032;DHT22;8120;48.308;8.914;2022-09-17T10:25:54;10.30;74.40
16032;DHT22;8120;48.308;8.914;2022-09-17T10:28:37;10.50;71.30
16032;DHT22;8120;48.308;8.914;2022-09-17T10:31:07;10.80;71.30
16032;DHT22;8120;48.308;8.914;2022-09-17T10:33:40;11.00;69.90
16032;DHT22;8120;48.308;8.914;2022-09-17T10:36:35;11.10;68.00
16032;DHT22;8120;48.308;8.914;2022-09-17T10:39:31;11.10;68.00
16032;DHT22;8120;48.308;8.914;2022-09-17T10:42:01;10.80;66.40
16032;DHT22;8120;48.308;8.914;2022-09-17T10:44:30;10.70;68.40
16032;DHT22;8120;48.308;8.914;2022-09-17T10:47:04;10.90;69.60
16032;DHT22;8120;48.308;8.914;2022-09-17T10:49:38;10.50;69.10
16032;DHT22;8120;48.308;8.914;2022-09-17T10:52:12;10.40;70.00
16032;DHT22;8120;48.308;8.914;2022-09-17T10:55:00;10.40;69.90
16032;DHT22;8120;48.308;8.914;2022-09-17T10:57:51;10.50;70.30
16032;DHT22;8120;48.308;8.914;2022-09-17T11:00:22;10.50;71.90
16032;DHT22;8120;48.308;8.914;2022-09-17T11:03:20;10.90;72.50
16032;DHT22;8120;48.308;8.914;2022-09-17T11:09:08;11.50;67.60
16032;DHT22;8120;48.308;8.914;2022-09-17T11:11:52;11.30;65.20
16032;DHT22;8120;48.308;8.914;2022-09-17T11:14:40;11.00;66.80
16032;DHT22;8120;48.308;8.914;2022-09-17T11:17:30;11.30;68.20
16032;DHT22;8120;48.308;8.914;2022-09-17T11:20:04;11.50;66.50
16032;DHT22;8120;48.308;8.914;2022-09-17T11:22:43;11.50;68.90
16032;DHT22;8120;48.308;8.914;2022-09-17T11:25:32;11.70;66.50
16032;DHT22;8120;48.308;8.914;2022-09-17T11:28:14;11.70;66.70
16032;DHT22;8120;48.308;8.914;2022-09-17T11:30:52;11.90;64.10
16032;DHT22;8120;48.308;8.914;2022-09-17T11:33:44;11.20;65.90
16032;DHT22;8120;48.308;8.914;2022-09-17T11:36:19;10.60;67.00
16032;DHT22;8120;48.308;8.914;2022-09-17T11:38:50;10.50;68.00
16032;DHT22;8120;48.308;8.914;2022-09-17T11:41:21;10.60;67.30
16032;DHT22;8120;48.308;8.914;2022-09-17T11:43:59;10.80;67.70
16032;DHT22;8120;48.308;8.914;2022-09-17T11:46:34;11.10;69.90
16032;DHT22;8120;48.308;8.914;2022-09-17T11:49:11;11.30;65.70
16032;DHT22;8120;48.308;8.914;2022-09-17T11:51:44;11.20;66.80
16032;DHT22;8120;48.308;8.914;2022-09-17T11:54:19;11.30;66.70
16032;DHT22;8120;48.308;8.914;2022-09-17T11:56:53;11.20;68.30
16032;DHT22;8120;48.308;8.914;2022-09-17T11:59:29;11.00;67.60
16032;DHT22;8120;48.308;8.914;2022-09-17T12:01:59;10.90;66.70
16032;DHT22;8120;48.308;8.914;2022-09-17T12:04:36;10.80;66.60
16032;DHT22;8120;48.308;8.914;2022-09-17T12:07:14;10.60;66.80
16032;DHT22;8120;48.308;8.914;2022-09-17T12:09:49;10.80;66.10
16032;DHT22;8120;48.308;8.914;2022-09-17T12:12:22;10.80;66.90
16032;DHT22;8120;48.308;8.914;2022-09-17T12:15:15;11.30;66.30
16032;DHT22;8120;48.308;8.914;2022-09-17T12:17:48;12.00;65.50
16032;DHT22;8120;48.308;8.914;2022-09-17T12:20:39;12.10;60.50
16032;DHT22;8120;48.308;8.914;2022-09-17T12:23:11;12.40;61.30
16032;DHT22;8120;48.308;8.914;2022-09-17T12:25:49;12.40;62.40
16032;DHT22;8120;48.308;8.914;2022-09-17T12:28:24;12.40;63.00
16032;DHT22;8120;48.308;8.914;2022-09-17T12:33:33;12.30;61.50
16032;DHT22;8120;48.308;8.914;2022-09-17T12:36:17;12.00;62.00
16032;DHT22;8120;48.308;8.914;2022-09-17T12:41:45;12.10;64.00
16032;DHT22;8120;48.308;8.914;2022-09-17T12:44:29;12.10;63.70
16032;DHT22;8120;48.308;8.914;2022-09-17T12:47:12;12.00;63.70
16032;DHT22;8120;48.308;8.914;2022-09-17T12:49:55;11.80;65.10
16032;DHT22;8120;48.308;8.914;2022-09-17T12:52:33;11.80;62.90
16032;DHT22;8120;48.308;8.914;2022-09-17T12:55:19;11.90;63.70
16032;DHT22;8120;48.308;8.914;2022-09-17T12:57:58;11.90;64.40
16032;DHT22;8120;48.308;8.914;2022-09-17T13:00:35;11.90;63.10
16032;DHT22;8120;48.308;8.914;2022-09-17T13:03:10;12.30;64.70
16032;DHT22;8120;48.308;8.914;2022-09-17T13:05:59;12.60;63.30
16032;DHT22;8120;48.308;8.914;2022-09-17T13:09:01;13.10;60.80
16032;DHT22;8120;48.308;8.914;2022-09-17T13:11:54;12.90;61.30
16032;DHT22;8120;48.308;8.914;2022-09-17T13:14:30;12.80;62.00
16032;DHT22;8120;48.308;8.914;2022-09-17T13:17:04;12.90;60.50
16032;DHT22;8120;48.308;8.914;2022-09-17T13:19:40;12.20;61.80
16032;DHT22;8120;48.308;8.914;2022-09-17T13:22:15;12.00;61.80
16032;DHT22;8120;48.308;8.914;2022-09-17T13:24:45;12.10;63.70
16032;DHT22;8120;48.308;8.914;2022-09-17T13:27:21;11.80;62.40
16032;DHT22;8120;48.308;8.914;2022-09-17T13:29:58;11.90;62.80
16032;DHT22;8120;48.308;8.914;2022-09-17T13:35:50;11.70;62.60
16032;DHT22;8120;48.308;8.914;2022-09-17T13:38:19;11.30;62.00
16032;DHT22;8120;48.308;8.914;2022-09-17T13:40:50;11.30;62.80
16032;DHT22;8120;48.308;8.914;2022-09-17T13:43:21;11.40;63.70
16032;DHT22;8120;48.308;8.914;2022-09-17T13:46:10;11.60;64.00
16032;DHT22;8120;48.308;8.914;2022-09-17T13:48:49;11.40;65.20
16032;DHT22;8120;48.308;8.914;2022-09-17T13:51:51;11.00;65.60
16032;DHT22;8120;48.308;8.914;2022-09-17T13:54:21;10.60;68.60
16032;DHT22;8120;48.308;8.914;2022-09-17T13:57:06;10.20;74.20
16032;DHT22;8120;48.308;8.914;2022-09-17T13:59:35;9.90;72.00
16032;DHT22;8120;48.308;8.914;2022-09-17T14:05:34;9.70;74.80
16032;DHT22;8120;48.308;8.914;2022-09-17T14:08:26;9.60;76.90
16032;DHT22;8120;48.308;8.914;2022-09-17T14:10:59;9.80;79.20
16032;DHT22;8120;48.308;8.914;2022-09-17T14:13:42;9.90;80.50
16032;DHT22;8120;48.308;8.914;2022-09-17T14:16:45;10.00;79.10
16032;DHT22;8120;48.308;8.914;2022-09-17T14:19:22;10.10;78.60
16032;DHT22;8120;48.308;8.914;2022-09-17T14:21:57;10.00;75.30
16032;DHT22;8120;48.308;8.914;2022-09-17T14:24:33;10.10;80.40
16032;DHT22;8120;48.308;8.914;2022-09-17T14:27:27;10.00;80.60
16032;DHT22;8120;48.308;8.914;2022-09-17T14:30:05;10.00;78.20
16032;DHT22;8120;48.308;8.914;2022-09-17T14:32:39;10.20;78.20
16032;DHT22;8120;48.308;8.914;2022-09-17T14:35:21;10.00;80.40
16032;DHT22;8120;48.308;8.914;2022-09-17T14:37:55;10.10;78.70
16032;DHT22;8120;48.308;8.914;2022-09-17T14:40:26;10.20;80.20
16032;DHT22;8120;48.308;8.914;2022-09-17T14:42:56;10.40;79.20
16032;DHT22;8120;48.308;8.914;2022-09-17T14:45:28;10.40;78.40
16032;DHT22;8120;48.308;8.914;2022-09-17T14:48:17;10.70;76.80
16032;DHT22;8120;48.308;8.914;2022-09-17T14:50:45;10.40;76.80
16032;DHT22;8120;48.308;8.914;2022-09-17T14:53:15;10.70;76.80
16032;DHT22;8120;48.308;8.914;2022-09-17T14:55:46;10.80;76.50
16032;DHT22;8120;48.308;8.914;2022-09-17T14:58:27;10.60;73.30
16032;DHT22;8120;48.308;8.914;2022-09-17T15:00:56;10.40;74.00
16032;DHT22;8120;48.308;8.914;2022-09-17T15:03:24;10.40;75.30
16032;DHT22;8120;48.308;8.914;2022-09-17T15:05:52;10.70;75.90
16032;DHT22;8120;48.308;8.914;2022-09-17T15:08:22;11.00;73.20
16032;DHT22;8120;48.308;8.914;2022-09-17T15:10:54;11.20;72.10
16032;DHT22;8120;48.308;8.914;2022-09-17T15:13:25;11.60;72.00
16032;DHT22;8120;48.308;8.914;2022-09-17T15:16:02;11.50;70.20
16032;DHT22;8120;48.308;8.914;2022-09-17T15:18:36;11.60;70.60
16032;DHT22;8120;48.308;8.914;2022-09-17T15:21:13;11.50;70.90
16032;DHT22;8120;48.308;8.914;2022-09-17T15:23:46;11.50;70.20
16032;DHT22;8120;48.308;8.914;2022-09-17T15:26:23;11.20;71.00
16032;DHT22;8120;48.308;8.914;2022-09-17T15:28:53;11.00;72.00
16032;DHT22;8120;48.308;8.914;2022-09-17T15:31:23;10.90;71.90
16032;DHT22;8120;48.308;8.914;2022-09-17T15:33:51;10.80;72.10
16032;DHT22;8120;48.308;8.914;2022-09-17T15:36:20;10.80;73.40
16032;DHT22;8120;48.308;8.914;2022-09-17T15:38:49;10.70;74.10
16032;DHT22;8120;48.308;8.914;2022-09-17T15:41:28;10.70;74.60
16032;DHT22;8120;48.308;8.914;2022-09-17T15:44:21;10.60;74.80
16032;DHT22;8120;48.308;8.914;2022-09-17T15:50:12;10.30;74.60
16032;DHT22;8120;48.308;8.914;2022-09-17T15:52:41;10.30;75.80
16032;DHT22;8120;48.308;8.914;2022-09-17T15:55:28;10.20;75.10
16032;DHT22;8120;48.308;8.914;2022-09-17T15:57:58;10.20;75.60
16032;DHT22;8120;48.308;8.914;2022-09-17T16:00:27;10.20;77.40
16032;DHT22;8120;48.308;8.914;2022-09-17T16:02:54;10.00;78.90
16032;DHT22;8120;48.308;8.914;2022-09-17T16:05:46;10.00;77.90
16032;DHT22;8120;48.308;8.914;2022-09-17T16:08:23;9.80;79.80
16032;DHT22;8120;48.308;8.914;2022-09-17T16:10:59;9.50;83.40
16032;DHT22;8120;48.308;8.914;2022-09-17T16:13:28;9.40;86.30
16032;DHT22;8120;48.308;8.914;2022-09-17T16:15:56;9.40;85.10
16032;DHT22;8120;48.308;8.914;2022-09-17T16:18:24;9.30;85.20
16032;DHT22;8120;48.308;8.914;2022-09-17T16:20:53;9.30;83.30
16032;DHT22;8120;48.308;8.914;2022-09-17T16:23:20;9.40;84.20
16032;DHT22;8120;48.308;8.914;2022-09-17T16:25:48;9.50;84.30
16032;DHT22;8120;48.308;8.914;2022-09-17T16:28:18;9.60;82.20
16032;DHT22;8120;48.308;8.914;2022-09-17T16:30:48;9.70;83.30
16032;DHT22;8120;48.308;8.914;2022-09-17T16:33:17;9.60;83.70
16032;DHT22;8120;48.308;8.914;2022-09-17T16:35:45;9.70;82.70
16032;DHT22;8120;48.308;8.914;2022-09-17T16:38:13;9.70;83.30
16032;DHT22;8120;48.308;8.914;2022-09-17T16:40:41;9.80;82.70
16032;DHT22;8120;48.308;8.914;2022-09-17T16:43:10;9.70;84.00
16032;DHT22;8120;48.308;8.914;2022-09-17T16:45:38;9.60;82.60
16032;DHT22;8120;48.308;8.914;2022-09-17T16:48:08;9.50;83.60
16032;DHT22;8120;48.308;8.914;2022-09-17T16:50:38;9.50;83.40
16032;DHT22;8120;48.308;8.914;2022-09-17T16:53:07;9.40;84.70
16032;DHT22;8120;48.308;8.914;2022-09-17T16:55:35;9.30;84.10
16032;DHT22;8120;48.308;8.914;2022-09-17T16:58:03;9.20;86.00
16032;DHT22;8120;48.308;8.914;2022-09-17T17:00:30;9.10;85.50
16032;DHT22;8120;48.308;8.914;2022-09-17T17:02:58;9.10;86.00